sensor_id;sensor_type;location;lat;lon;timestamp;noise_LAeq;noise_LA_min;noise_LA_max;noise_LA01;noise_LA95
70245;Laerm;57637;49.272;8.590;2023-05-02T00:00:37;37.09;32.93;43.87;;
70245;Laerm;57637;49.272;8.590;2023-05-02T00:03:03;38.31;33.07;51.63;;
70245;Laerm;57637;49.272;8.590;2023-05-02T00:05:30;39.28;33.50;47.43;;
70245;Laerm;57637;49.272;8.590;2023-05-02T00:07:55;37.12;32.89;50.40;;
70245;Laerm;57637;49.272;8.590;2023-05-02T00:10:21;37.61;33.42;42.64;;
70245;Laerm;57637;49.272;8.590;2023-05-02T00:12:46;39.17;33.17;45.08;;
70245;Laerm;57637;49.272;8.590;2023-05-02T00:15:12;38.55;34.08;44.20;;
70245;Laerm;57637;49.272;8.590;2023-05-02T00:17:41;40.16;34.95;50.00;;
70245;Laerm;57637;49.272;8.590;2023-05-02T00:20:09;38.31;32.86;45.49;;
70245;Laerm;57637;49.272;8.590;2023-05-02T00:22:34;39.88;33.77;48.70;;
70245;Laerm;57637;49.272;8.590;2023-05-02T00:25:00;41.03;35.61;54.98;;
70245;Laerm;57637;49.272;8.590;2023-05-02T00:27:26;38.66;33.53;44.03;;
70245;Laerm;57637;49.272;8.590;2023-05-02T00:29:52;38.98;34.36;43.06;;
70245;Laerm;57637;49.272;8.590;2023-05-02T00:32:18;39.58;33.70;45.88;;
70245;Laerm;57637;49.272;8.590;2023-05-02T00:34:43;39.40;33.06;45.76;;
70245;Laerm;57637;49.272;8.590;2023-05-02T00:37:08;40.57;35.20;49.57;;
70245;Laerm;57637;49.272;8.590;2023-05-02T00:39:34;41.40;34.91;51.51;;
70245;Laerm;57637;49.272;8.590;2023-05-02T00:42:00;40.83;34.24;47.81;;
70245;Laerm;57637;49.272;8.590;2023-05-02T00:44:26;39.60;35.05;43.83;;
70245;Laerm;57637;49.272;8.590;2023-05-02T00:46:51;40.22;34.84;48.62;;
70245;Laerm;57637;49.272;8.590;2023-05-02T00:49:18;39.98;34.22;46.67;;
70245;Laerm;57637;49.272;8.590;2023-05-02T00:51:44;38.69;33.99;45.84;;
70245;Laerm;57637;49.272;8.590;2023-05-02T00:54:09;40.51;34.16;47.31;;
70245;Laerm;57637;49.272;8.590;2023-05-02T00:56:36;40.94;37.09;46.32;;
70245;Laerm;57637;49.272;8.590;2023-05-02T00:59:02;40.26;36.19;51.58;;
70245;Laerm;57637;49.272;8.590;2023-05-02T01:01:59;39.12;34.56;44.19;;
70245;Laerm;57637;49.272;8.590;2023-05-02T01:10:06;39.50;36.08;43.52;;
70245;Laerm;57637;49.272;8.590;2023-05-02T01:15:21;40.13;36.13;45.82;;
70245;Laerm;57637;49.272;8.590;2023-05-02T01:17:47;40.81;37.09;49.26;;
70245;Laerm;57637;49.272;8.590;2023-05-02T01:20:19;40.49;35.20;45.54;;
70245;Laerm;57637;49.272;8.590;2023-05-02T01:22:45;41.03;36.98;54.60;;
70245;Laerm;57637;49.272;8.590;2023-05-02T01:25:46;41.04;36.39;47.07;;
70245;Laerm;57637;49.272;8.590;2023-05-02T01:28:28;41.50;36.89;49.45;;
70245;Laerm;57637;49.272;8.590;2023-05-02T01:30:55;40.85;36.18;46.16;;
70245;Laerm;57637;49.272;8.590;2023-05-02T01:33:23;40.18;36.36;43.89;;
70245;Laerm;57637;49.272;8.590;2023-05-02T01:35:51;40.83;36.43;49.80;;
70245;Laerm;57637;49.272;8.590;2023-05-02T01:38:18;41.12;37.15;46.85;;
70245;Laerm;57637;49.272;8.590;2023-05-02T01:40:45;40.89;37.15;46.86;;
70245;Laerm;57637;49.272;8.590;2023-05-02T01:43:13;43.53;38.33;57.13;;
70245;Laerm;57637;49.272;8.590;2023-05-02T01:45:42;41.76;38.44;45.17;;
70245;Laerm;57637;49.272;8.590;2023-05-02T01:48:09;41.94;37.93;47.35;;
70245;Laerm;57637;49.272;8.590;2023-05-02T01:50:35;40.55;37.03;45.32;;
70245;Laerm;57637;49.272;8.590;2023-05-02T01:53:02;40.70;36.57;44.96;;
70245;Laerm;57637;49.272;8.590;2023-05-02T01:55:30;40.73;37.00;48.60;;
70245;Laerm;57637;49.272;8.590;2023-05-02T01:57:58;41.02;37.39;48.53;;
70245;Laerm;57637;49.272;8.590;2023-05-02T02:00:24;41.88;36.82;48.53;;
70245;Laerm;57637;49.272;8.590;2023-05-02T02:02:51;41.42;38.06;44.82;;
70245;Laerm;57637;49.272;8.590;2023-05-02T02:05:19;41.83;37.97;45.79;;
70245;Laerm;57637;49.272;8.590;2023-05-02T02:07:46;40.55;36.69;44.64;;
70245;Laerm;57637;49.272;8.590;2023-05-02T02:10:12;41.97;37.96;47.88;;
70245;Laerm;57637;49.272;8.590;2023-05-02T02:12:41;41.90;37.90;50.09;;
70245;Laerm;57637;49.272;8.590;2023-05-02T02:15:24;41.48;38.19;45.14;;
70245;Laerm;57637;49.272;8.590;2023-05-02T02:20:21;42.49;39.31;45.60;;
70245;Laerm;57637;49.272;8.590;2023-05-02T02:22:47;42.17;38.59;45.84;;
70245;Laerm;57637;49.272;8.590;2023-05-02T02:25:17;42.30;38.91;46.53;;
70245;Laerm;57637;49.272;8.590;2023-05-02T02:27:43;43.47;39.50;48.89;;
70245;Laerm;57637;49.272;8.590;2023-05-02T02:30:09;42.39;38.15;49.04;;
70245;Laerm;57637;49.272;8.590;2023-05-02T02:32:34;43.20;39.51;47.58;;
70245;Laerm;57637;49.272;8.590;2023-05-02T02:35:00;43.76;40.11;51.83;;
70245;Laerm;57637;49.272;8.590;2023-05-02T02:37:31;44.74;40.83;48.57;;
70245;Laerm;57637;49.272;8.590;2023-05-02T02:40:04;44.61;40.70;52.15;;
70245;Laerm;57637;49.272;8.590;2023-05-02T02:48:36;45.51;40.74;52.96;;
70245;Laerm;57637;49.272;8.590;2023-05-02T02:51:08;44.90;41.44;51.10;;
70245;Laerm;57637;49.272;8.590;2023-05-02T02:53:51;44.96;41.16;52.23;;
70245;Laerm;57637;49.272;8.590;2023-05-02T02:56:38;45.40;41.40;58.22;;
70245;Laerm;57637;49.272;8.590;2023-05-02T02:59:11;44.26;41.00;48.21;;
70245;Laerm;57637;49.272;8.590;2023-05-02T03:01:41;45.87;41.76;49.86;;
70245;Laerm;57637;49.272;8.590;2023-05-02T03:04:09;48.08;43.10;63.80;;
70245;Laerm;57637;49.272;8.590;2023-05-02T03:06:36;47.77;44.07;55.93;;
70245;Laerm;57637;49.272;8.590;2023-05-02T03:09:01;47.86;43.81;58.30;;
70245;Laerm;57637;49.272;8.590;2023-05-02T03:11:28;50.91;43.19;64.07;;
70245;Laerm;57637;49.272;8.590;2023-05-02T03:13:53;50.84;44.37;63.03;;
70245;Laerm;57637;49.272;8.590;2023-05-02T03:18:56;50.54;44.61;63.49;;
70245;Laerm;57637;49.272;8.590;2023-05-02T03:21:21;49.84;43.94;64.42;;
70245;Laerm;57637;49.272;8.590;2023-05-02T03:23:47;51.16;44.83;63.98;;
70245;Laerm;57637;49.272;8.590;2023-05-02T03:26:12;50.51;44.73;65.34;;
70245;Laerm;57637;49.272;8.590;2023-05-02T03:28:37;53.60;45.09;68.18;;
70245;Laerm;57637;49.272;8.590;2023-05-02T03:31:03;53.29;45.71;68.47;;
70245;Laerm;57637;49.272;8.590;2023-05-02T03:33:28;54.09;46.10;68.72;;
70245;Laerm;57637;49.272;8.590;2023-05-02T03:35:53;53.87;45.75;68.21;;
70245;Laerm;57637;49.272;8.590;2023-05-02T03:38:19;55.41;45.83;70.98;;
70245;Laerm;57637;49.272;8.590;2023-05-02T03:40:44;57.61;46.08;74.33;;
70245;Laerm;57637;49.272;8.590;2023-05-02T03:43:10;60.13;46.57;75.14;;
70245;Laerm;57637;49.272;8.590;2023-05-02T03:45:35;59.89;45.63;74.62;;
70245;Laerm;57637;49.272;8.590;2023-05-02T03:48:01;60.21;46.06;75.87;;
70245;Laerm;57637;49.272;8.590;2023-05-02T03:50:27;60.19;45.67;76.32;;
70245;Laerm;57637;49.272;8.590;2023-05-02T03:52:52;57.03;45.41;71.37;;
70245;Laerm;57637;49.272;8.590;2023-05-02T03:55:18;57.32;44.88;73.79;;
70245;Laerm;57637;49.272;8.590;2023-05-02T03:57:43;61.79;44.29;76.64;;
70245;Laerm;57637;49.272;8.590;2023-05-02T04:00:09;61.34;45.02;77.53;;
70245;Laerm;57637;49.272;8.590;2023-05-02T04:02:35;59.33;44.96;76.14;;
70245;Laerm;57637;49.272;8.590;2023-05-02T04:05:00;58.93;45.38;74.36;;
70245;Laerm;57637;49.272;8.590;2023-05-02T04:07:25;60.65;44.67;76.81;;
70245;Laerm;57637;49.272;8.590;2023-05-02T04:09:51;60.72;44.50;77.81;;
70245;Laerm;57637;49.272;8.590;2023-05-02T04:12:16;62.44;45.56;78.71;;
70245;Laerm;57637;49.272;8.590;2023-05-02T04:14:42;50.59;44.39;71.58;;
70245;Laerm;57637;49.272;8.590;2023-05-02T04:17:07;54.48;44.31;74.11;;
70245;Laerm;57637;49.272;8.590;2023-05-02T04:19:33;56.08;46.07;74.48;;
70245;Laerm;57637;49.272;8.590;2023-05-02T04:21:58;49.72;45.56;60.70;;
70245;Laerm;57637;49.272;8.590;2023-05-02T04:24:24;49.18;45.47;56.54;;
70245;Laerm;57637;49.272;8.590;2023-05-02T04:26:49;48.17;44.42;53.19;;
70245;Laerm;57637;49.272;8.590;2023-05-02T04:29:15;52.92;44.67;72.39;;
70245;Laerm;57637;49.272;8.590;2023-05-02T04:31:40;50.26;45.31;65.12;;
70245;Laerm;57637;49.272;8.590;2023-05-02T04:34:06;51.34;46.19;61.34;;
70245;Laerm;57637;49.272;8.590;2023-05-02T04:36:31;52.02;46.04;66.74;;
70245;Laerm;57637;49.272;8.590;2023-05-02T04:38:58;49.37;45.66;53.63;;
70245;Laerm;57637;49.272;8.590;2023-05-02T04:41:23;49.73;46.70;55.17;;
70245;Laerm;57637;49.272;8.590;2023-05-02T04:43:49;49.41;45.97;52.93;;
70245;Laerm;57637;49.272;8.590;2023-05-02T04:46:15;49.49;46.12;58.62;;
70245;Laerm;57637;49.272;8.590;2023-05-02T04:48:41;55.55;47.02;73.50;;
70245;Laerm;57637;49.272;8.590;2023-05-02T04:51:08;59.09;46.01;73.91;;
70245;Laerm;57637;49.272;8.590;2023-05-02T04:53:33;60.89;46.66;74.49;;
70245;Laerm;57637;49.272;8.590;2023-05-02T04:55:59;53.42;46.51;71.64;;
70245;Laerm;57637;49.272;8.590;2023-05-02T04:58:24;49.91;46.69;54.63;;
70245;Laerm;57637;49.272;8.590;2023-05-02T05:00:49;49.78;46.18;55.57;;
70245;Laerm;57637;49.272;8.590;2023-05-02T05:03:15;51.50;45.69;70.80;;
70245;Laerm;57637;49.272;8.590;2023-05-02T05:05:40;50.01;45.76;58.39;;
70245;Laerm;57637;49.272;8.590;2023-05-02T05:08:06;49.62;46.52;60.82;;
70245;Laerm;57637;49.272;8.590;2023-05-02T05:10:31;50.89;45.81;57.47;;
70245;Laerm;57637;49.272;8.590;2023-05-02T05:12:57;54.67;47.74;71.06;;
70245;Laerm;57637;49.272;8.590;2023-05-02T05:15:22;53.75;46.53;73.44;;
70245;Laerm;57637;49.272;8.590;2023-05-02T05:17:49;50.21;46.04;62.98;;
70245;Laerm;57637;49.272;8.590;2023-05-02T05:20:15;50.49;46.46;59.84;;
70245;Laerm;57637;49.272;8.590;2023-05-02T05:22:41;50.49;46.98;59.96;;
70245;Laerm;57637;49.272;8.590;2023-05-02T05:25:07;50.26;45.72;54.86;;
70245;Laerm;57637;49.272;8.590;2023-05-02T05:27:33;50.50;47.29;55.68;;
70245;Laerm;57637;49.272;8.590;2023-05-02T05:29:59;50.17;46.40;59.64;;
70245;Laerm;57637;49.272;8.590;2023-05-02T05:32:24;51.85;46.97;59.90;;
70245;Laerm;57637;49.272;8.590;2023-05-02T05:34:53;50.93;45.78;57.89;;
70245;Laerm;57637;49.272;8.590;2023-05-02T05:37:19;50.07;45.52;59.15;;
70245;Laerm;57637;49.272;8.590;2023-05-02T05:39:45;54.21;46.94;70.93;;
70245;Laerm;57637;49.272;8.590;2023-05-02T05:42:11;54.05;47.32;73.22;;
70245;Laerm;57637;49.272;8.590;2023-05-02T05:44:37;52.60;46.85;66.47;;
70245;Laerm;57637;49.272;8.590;2023-05-02T05:47:03;54.89;47.07;72.10;;
70245;Laerm;57637;49.272;8.590;2023-05-02T05:49:28;55.43;48.56;72.90;;
70245;Laerm;57637;49.272;8.590;2023-05-02T05:51:54;52.44;48.57;64.93;;
70245;Laerm;57637;49.272;8.590;2023-05-02T05:54:19;52.65;47.53;65.24;;
70245;Laerm;57637;49.272;8.590;2023-05-02T05:56:46;54.96;45.23;70.70;;
70245;Laerm;57637;49.272;8.590;2023-05-02T05:59:12;52.50;46.75;69.40;;
70245;Laerm;57637;49.272;8.590;2023-05-02T06:01:37;50.34;45.46;57.94;;
70245;Laerm;57637;49.272;8.590;2023-05-02T06:04:03;50.40;46.48;57.64;;
70245;Laerm;57637;49.272;8.590;2023-05-02T06:06:32;50.42;46.59;57.60;;
70245;Laerm;57637;49.272;8.590;2023-05-02T06:08:57;49.27;45.65;59.92;;
70245;Laerm;57637;49.272;8.590;2023-05-02T06:11:22;50.29;45.27;67.53;;
70245;Laerm;57637;49.272;8.590;2023-05-02T06:13:51;50.36;45.68;64.97;;
70245;Laerm;57637;49.272;8.590;2023-05-02T06:16:17;49.07;44.66;67.00;;
70245;Laerm;57637;49.272;8.590;2023-05-02T06:18:43;48.94;45.39;61.53;;
70245;Laerm;57637;49.272;8.590;2023-05-02T06:21:08;49.81;42.95;68.93;;
70245;Laerm;57637;49.272;8.590;2023-05-02T06:23:34;47.42;42.02;64.02;;
70245;Laerm;57637;49.272;8.590;2023-05-02T06:26:00;47.49;42.16;62.32;;
70245;Laerm;57637;49.272;8.590;2023-05-02T06:28:26;47.66;42.30;62.70;;
70245;Laerm;57637;49.272;8.590;2023-05-02T06:31:03;48.02;43.03;66.67;;
70245;Laerm;57637;49.272;8.590;2023-05-02T06:33:30;48.05;43.47;68.66;;
70245;Laerm;57637;49.272;8.590;2023-05-02T06:35:56;49.70;43.30;62.64;;
70245;Laerm;57637;49.272;8.590;2023-05-02T06:38:21;47.32;42.29;62.37;;
70245;Laerm;57637;49.272;8.590;2023-05-02T06:40:47;49.19;44.00;64.80;;
70245;Laerm;57637;49.272;8.590;2023-05-02T06:43:13;49.53;43.47;65.58;;
70245;Laerm;57637;49.272;8.590;2023-05-02T06:45:39;46.94;40.44;63.30;;
70245;Laerm;57637;49.272;8.590;2023-05-02T06:48:05;47.37;42.09;60.65;;
70245;Laerm;57637;49.272;8.590;2023-05-02T06:50:31;48.30;42.62;66.52;;
70245;Laerm;57637;49.272;8.590;2023-05-02T06:52:57;53.72;42.41;70.50;;
70245;Laerm;57637;49.272;8.590;2023-05-02T06:55:22;52.28;39.58;69.35;;
70245;Laerm;57637;49.272;8.590;2023-05-02T06:57:48;46.37;38.91;63.88;;
70245;Laerm;57637;49.272;8.590;2023-05-02T07:00:17;46.80;41.70;63.96;;
70245;Laerm;57637;49.272;8.590;2023-05-02T07:02:45;52.35;42.96;65.91;;
70245;Laerm;57637;49.272;8.590;2023-05-02T07:05:11;46.27;40.05;67.36;;
70245;Laerm;57637;49.272;8.590;2023-05-02T07:07:38;48.20;42.88;63.02;;
70245;Laerm;57637;49.272;8.590;2023-05-02T07:10:03;46.19;38.86;61.23;;
70245;Laerm;57637;49.272;8.590;2023-05-02T07:12:29;47.10;42.06;62.42;;
70245;Laerm;57637;49.272;8.590;2023-05-02T07:14:54;45.69;40.78;58.05;;
70245;Laerm;57637;49.272;8.590;2023-05-02T07:17:20;45.54;40.94;64.87;;
70245;Laerm;57637;49.272;8.590;2023-05-02T07:19:45;43.91;37.73;54.22;;
70245;Laerm;57637;49.272;8.590;2023-05-02T07:22:10;43.49;37.97;60.29;;
70245;Laerm;57637;49.272;8.590;2023-05-02T07:24:39;44.59;39.39;59.97;;
70245;Laerm;57637;49.272;8.590;2023-05-02T07:27:05;43.31;38.38;60.80;;
70245;Laerm;57637;49.272;8.590;2023-05-02T07:29:31;42.84;38.44;51.45;;
70245;Laerm;57637;49.272;8.590;2023-05-02T07:31:57;54.01;38.98;74.38;;
70245;Laerm;57637;49.272;8.590;2023-05-02T07:34:22;50.82;38.48;71.72;;
70245;Laerm;57637;49.272;8.590;2023-05-02T07:36:47;44.25;39.14;58.54;;
70245;Laerm;57637;49.272;8.590;2023-05-02T07:39:13;43.28;38.65;62.19;;
70245;Laerm;57637;49.272;8.590;2023-05-02T07:41:38;44.98;37.50;58.86;;
70245;Laerm;57637;49.272;8.590;2023-05-02T07:44:03;42.26;37.14;59.49;;
70245;Laerm;57637;49.272;8.590;2023-05-02T07:46:29;47.72;37.67;72.07;;
70245;Laerm;57637;49.272;8.590;2023-05-02T07:48:55;48.82;38.92;69.31;;
70245;Laerm;57637;49.272;8.590;2023-05-02T07:51:20;44.51;39.49;60.39;;
70245;Laerm;57637;49.272;8.590;2023-05-02T07:53:49;49.63;38.99;68.31;;
70245;Laerm;57637;49.272;8.590;2023-05-02T07:56:17;50.01;40.31;73.07;;
70245;Laerm;57637;49.272;8.590;2023-05-02T07:58:42;52.94;39.57;74.89;;
70245;Laerm;57637;49.272;8.590;2023-05-02T08:01:07;43.55;38.54;57.37;;
70245;Laerm;57637;49.272;8.590;2023-05-02T08:03:33;44.89;39.04;62.24;;
70245;Laerm;57637;49.272;8.590;2023-05-02T08:05:58;44.58;39.16;62.20;;
70245;Laerm;57637;49.272;8.590;2023-05-02T08:08:23;47.96;40.17;62.73;;
70245;Laerm;57637;49.272;8.590;2023-05-02T08:10:49;45.36;38.88;63.49;;
70245;Laerm;57637;49.272;8.590;2023-05-02T08:13:16;46.20;40.43;59.92;;
70245;Laerm;57637;49.272;8.590;2023-05-02T08:15:41;45.73;39.21;56.98;;
70245;Laerm;57637;49.272;8.590;2023-05-02T08:18:06;44.49;39.13;57.59;;
70245;Laerm;57637;49.272;8.590;2023-05-02T08:20:32;43.99;38.73;54.87;;
70245;Laerm;57637;49.272;8.590;2023-05-02T08:22:57;54.59;38.35;73.06;;
70245;Laerm;57637;49.272;8.590;2023-05-02T08:25:22;48.98;38.40;68.70;;
70245;Laerm;57637;49.272;8.590;2023-05-02T08:27:48;47.60;39.07;71.56;;
70245;Laerm;57637;49.272;8.590;2023-05-02T08:30:13;42.18;38.50;54.37;;
70245;Laerm;57637;49.272;8.590;2023-05-02T08:32:38;44.49;38.55;63.35;;
70245;Laerm;57637;49.272;8.590;2023-05-02T08:35:04;45.90;39.74;58.04;;
70245;Laerm;57637;49.272;8.590;2023-05-02T08:37:30;50.60;39.02;69.69;;
70245;Laerm;57637;49.272;8.590;2023-05-02T08:39:56;45.81;38.82;64.50;;
70245;Laerm;57637;49.272;8.590;2023-05-02T08:42:22;43.89;37.83;58.10;;
70245;Laerm;57637;49.272;8.590;2023-05-02T08:44:48;43.00;38.18;57.14;;
70245;Laerm;57637;49.272;8.590;2023-05-02T08:47:14;43.23;37.70;61.03;;
70245;Laerm;57637;49.272;8.590;2023-05-02T08:49:41;43.45;38.21;56.95;;
70245;Laerm;57637;49.272;8.590;2023-05-02T08:52:08;50.32;39.50;73.56;;
70245;Laerm;57637;49.272;8.590;2023-05-02T08:54:37;43.91;38.00;60.86;;
70245;Laerm;57637;49.272;8.590;2023-05-02T08:57:03;46.05;38.33;62.92;;
70245;Laerm;57637;49.272;8.590;2023-05-02T08:59:28;49.77;37.10;76.24;;
70245;Laerm;57637;49.272;8.590;2023-05-02T09:02:54;47.09;35.40;67.94;;
70245;Laerm;57637;49.272;8.590;2023-05-02T09:05:05;43.96;35.28;55.80;;
70245;Laerm;57637;49.272;8.590;2023-05-02T09:07:43;45.67;36.17;62.75;;
70245;Laerm;57637;49.272;8.590;2023-05-02T09:10:09;45.27;35.67;62.70;;
70245;Laerm;57637;49.272;8.590;2023-05-02T09:12:35;43.23;35.73;59.72;;
70245;Laerm;57637;49.272;8.590;2023-05-02T09:15:11;50.02;36.70;70.19;;
70245;Laerm;57637;49.272;8.590;2023-05-02T09:17:39;43.34;36.32;59.65;;
70245;Laerm;57637;49.272;8.590;2023-05-02T09:20:05;41.78;36.59;55.86;;
70245;Laerm;57637;49.272;8.590;2023-05-02T09:22:31;46.48;37.11;74.91;;
70245;Laerm;57637;49.272;8.590;2023-05-02T09:24:57;45.03;37.23;68.84;;
70245;Laerm;57637;49.272;8.590;2023-05-02T09:27:22;44.16;36.56;60.13;;
70245;Laerm;57637;49.272;8.590;2023-05-02T09:29:48;47.16;36.88;64.54;;
70245;Laerm;57637;49.272;8.590;2023-05-02T09:32:13;42.59;37.51;57.64;;
70245;Laerm;57637;49.272;8.590;2023-05-02T09:34:38;46.38;37.15;68.70;;
70245;Laerm;57637;49.272;8.590;2023-05-02T09:37:04;43.74;37.45;56.23;;
70245;Laerm;57637;49.272;8.590;2023-05-02T09:39:30;46.56;37.90;61.73;;
70245;Laerm;57637;49.272;8.590;2023-05-02T09:41:56;43.62;36.62;64.67;;
70245;Laerm;57637;49.272;8.590;2023-05-02T09:44:24;43.60;37.43;59.48;;
70245;Laerm;57637;49.272;8.590;2023-05-02T09:46:54;45.86;37.93;61.34;;
70245;Laerm;57637;49.272;8.590;2023-05-02T09:49:43;44.86;38.01;59.20;;
70245;Laerm;57637;49.272;8.590;2023-05-02T09:52:11;43.86;37.61;55.84;;
70245;Laerm;57637;49.272;8.590;2023-05-02T09:54:37;44.97;38.01;62.15;;
70245;Laerm;57637;49.272;8.590;2023-05-02T09:57:03;48.29;38.85;70.44;;
70245;Laerm;57637;49.272;8.590;2023-05-02T09:59:29;52.82;37.28;71.27;;
70245;Laerm;57637;49.272;8.590;2023-05-02T10:01:56;44.35;36.62;60.74;;
70245;Laerm;57637;49.272;8.590;2023-05-02T10:04:23;45.07;38.58;60.62;;
70245;Laerm;57637;49.272;8.590;2023-05-02T10:06:50;43.42;37.61;65.22;;
70245;Laerm;57637;49.272;8.590;2023-05-02T10:09:18;43.61;37.58;60.76;;
70245;Laerm;57637;49.272;8.590;2023-05-02T10:11:44;43.05;37.61;57.36;;
70245;Laerm;57637;49.272;8.590;2023-05-02T10:14:11;43.16;38.13;54.10;;
70245;Laerm;57637;49.272;8.590;2023-05-02T10:19:23;43.05;37.11;61.48;;
70245;Laerm;57637;49.272;8.590;2023-05-02T10:21:52;51.35;38.69;66.44;;
70245;Laerm;57637;49.272;8.590;2023-05-02T10:24:18;50.12;39.81;64.71;;
70245;Laerm;57637;49.272;8.590;2023-05-02T10:26:45;51.70;43.06;67.09;;
70245;Laerm;57637;49.272;8.590;2023-05-02T10:29:11;48.34;41.44;66.36;;
70245;Laerm;57637;49.272;8.590;2023-05-02T10:31:37;47.26;37.93;66.47;;
70245;Laerm;57637;49.272;8.590;2023-05-02T10:34:05;44.24;39.18;62.07;;
70245;Laerm;57637;49.272;8.590;2023-05-02T10:36:34;43.63;37.78;61.88;;
70245;Laerm;57637;49.272;8.590;2023-05-02T10:39:01;48.93;37.33;70.04;;
70245;Laerm;57637;49.272;8.590;2023-05-02T10:41:29;46.99;37.68;65.97;;
70245;Laerm;57637;49.272;8.590;2023-05-02T10:43:56;46.37;39.11;65.30;;
70245;Laerm;57637;49.272;8.590;2023-05-02T10:51:29;44.97;37.57;63.23;;
70245;Laerm;57637;49.272;8.590;2023-05-02T10:54:24;49.71;39.43;67.56;;
70245;Laerm;57637;49.272;8.590;2023-05-02T10:59:37;45.32;38.65;62.73;;
70245;Laerm;57637;49.272;8.590;2023-05-02T11:05:03;45.63;38.16;64.15;;
70245;Laerm;57637;49.272;8.590;2023-05-02T11:07:31;43.61;38.38;55.33;;
70245;Laerm;57637;49.272;8.590;2023-05-02T11:15:10;43.98;37.77;59.71;;
70245;Laerm;57637;49.272;8.590;2023-05-02T11:18:04;46.48;38.72;64.55;;
70245;Laerm;57637;49.272;8.590;2023-05-02T11:20:34;51.25;37.82;74.49;;
70245;Laerm;57637;49.272;8.590;2023-05-02T11:23:22;51.65;37.34;74.44;;
70245;Laerm;57637;49.272;8.590;2023-05-02T11:25:55;46.67;37.68;62.33;;
70245;Laerm;57637;49.272;8.590;2023-05-02T11:31:03;44.46;37.52;58.26;;
70245;Laerm;57637;49.272;8.590;2023-05-02T11:33:29;45.77;36.86;63.05;;
70245;Laerm;57637;49.272;8.590;2023-05-02T11:35:54;42.32;37.18;56.88;;
70245;Laerm;57637;49.272;8.590;2023-05-02T11:38:22;44.97;37.67;63.19;;
70245;Laerm;57637;49.272;8.590;2023-05-02T11:40:52;49.12;38.12;66.15;;
70245;Laerm;57637;49.272;8.590;2023-05-02T11:43:19;44.43;38.92;55.01;;
70245;Laerm;57637;49.272;8.590;2023-05-02T11:45:46;42.67;36.99;58.92;;
70245;Laerm;57637;49.272;8.590;2023-05-02T11:48:13;42.95;36.74;58.76;;
70245;Laerm;57637;49.272;8.590;2023-05-02T11:50:47;42.48;36.75;58.61;;
70245;Laerm;57637;49.272;8.590;2023-05-02T11:53:14;45.30;37.37;63.57;;
70245;Laerm;57637;49.272;8.590;2023-05-02T11:55:45;45.32;37.99;65.47;;
70245;Laerm;57637;49.272;8.590;2023-05-02T11:58:18;51.08;37.13;72.59;;
70245;Laerm;57637;49.272;8.590;2023-05-02T12:00:45;45.56;37.18;61.22;;
70245;Laerm;57637;49.272;8.590;2023-05-02T12:05:51;45.30;37.62;59.99;;
70245;Laerm;57637;49.272;8.590;2023-05-02T12:08:21;45.37;38.16;59.19;;
70245;Laerm;57637;49.272;8.590;2023-05-02T12:10:47;48.68;38.27;62.40;;
70245;Laerm;57637;49.272;8.590;2023-05-02T12:13:13;47.32;39.48;64.86;;
70245;Laerm;57637;49.272;8.590;2023-05-02T12:15:38;50.88;37.56;63.85;;
70245;Laerm;57637;49.272;8.590;2023-05-02T12:18:05;46.50;37.41;71.48;;
70245;Laerm;57637;49.272;8.590;2023-05-02T12:20:31;43.82;36.61;60.68;;
70245;Laerm;57637;49.272;8.590;2023-05-02T12:22:56;48.08;37.15;64.37;;
70245;Laerm;57637;49.272;8.590;2023-05-02T12:25:22;46.60;37.49;62.23;;
70245;Laerm;57637;49.272;8.590;2023-05-02T12:28:00;47.85;38.45;65.57;;
70245;Laerm;57637;49.272;8.590;2023-05-02T12:30:27;47.30;35.84;65.45;;
70245;Laerm;57637;49.272;8.590;2023-05-02T12:32:59;43.60;37.26;62.00;;
70245;Laerm;57637;49.272;8.590;2023-05-02T12:35:29;46.27;37.54;60.10;;
70245;Laerm;57637;49.272;8.590;2023-05-02T12:38:16;47.83;37.65;61.36;;
70245;Laerm;57637;49.272;8.590;2023-05-02T12:40:53;48.42;36.32;65.41;;
70245;Laerm;57637;49.272;8.590;2023-05-02T12:43:19;46.27;37.58;56.94;;
70245;Laerm;57637;49.272;8.590;2023-05-02T12:45:46;45.28;37.18;62.43;;
70245;Laerm;57637;49.272;8.590;2023-05-02T12:48:26;44.66;36.61;58.64;;
70245;Laerm;57637;49.272;8.590;2023-05-02T12:50:53;43.60;36.33;62.36;;
70245;Laerm;57637;49.272;8.590;2023-05-02T12:56:05;50.13;36.97;68.42;;
70245;Laerm;57637;49.272;8.590;2023-05-02T12:58:39;49.33;37.42;68.60;;
70245;Laerm;57637;49.272;8.590;2023-05-02T13:01:06;41.92;36.25;57.36;;
70245;Laerm;57637;49.272;8.590;2023-05-02T13:03:32;41.53;35.69;61.08;;
70245;Laerm;57637;49.272;8.590;2023-05-02T13:05:57;43.16;36.68;55.19;;
70245;Laerm;57637;49.272;8.590;2023-05-02T13:08:23;43.04;37.09;58.25;;
70245;Laerm;57637;49.272;8.590;2023-05-02T13:10:48;44.06;38.14;67.23;;
70245;Laerm;57637;49.272;8.590;2023-05-02T13:13:13;45.52;38.55;62.59;;
70245;Laerm;57637;49.272;8.590;2023-05-02T13:15:40;46.64;37.21;69.32;;
70245;Laerm;57637;49.272;8.590;2023-05-02T13:18:05;45.62;37.95;66.71;;
70245;Laerm;57637;49.272;8.590;2023-05-02T13:20:30;44.76;38.57;60.20;;
70245;Laerm;57637;49.272;8.590;2023-05-02T13:22:56;51.09;38.07;69.07;;
70245;Laerm;57637;49.272;8.590;2023-05-02T13:25:21;50.62;37.03;66.86;;
70245;Laerm;57637;49.272;8.590;2023-05-02T13:27:47;48.49;36.76;66.32;;
70245;Laerm;57637;49.272;8.590;2023-05-02T13:30:12;48.29;39.09;64.92;;
70245;Laerm;57637;49.272;8.590;2023-05-02T13:32:38;48.35;37.62;67.32;;
70245;Laerm;57637;49.272;8.590;2023-05-02T13:35:04;45.61;37.16;68.61;;
70245;Laerm;57637;49.272;8.590;2023-05-02T13:37:29;55.13;38.94;74.12;;
70245;Laerm;57637;49.272;8.590;2023-05-02T13:39:55;55.67;37.10;72.49;;
70245;Laerm;57637;49.272;8.590;2023-05-02T13:42:20;54.64;39.22;71.93;;
70245;Laerm;57637;49.272;8.590;2023-05-02T13:44:46;46.70;39.31;59.26;;
70245;Laerm;57637;49.272;8.590;2023-05-02T13:47:11;44.58;38.23;58.46;;
70245;Laerm;57637;49.272;8.590;2023-05-02T13:49:36;46.09;39.28;63.52;;
70245;Laerm;57637;49.272;8.590;2023-05-02T13:52:02;46.45;37.90;62.95;;
70245;Laerm;57637;49.272;8.590;2023-05-02T13:54:28;48.59;39.43;69.49;;
70245;Laerm;57637;49.272;8.590;2023-05-02T13:56:53;43.69;37.46;56.35;;
70245;Laerm;57637;49.272;8.590;2023-05-02T13:59:19;43.69;37.75;61.30;;
70245;Laerm;57637;49.272;8.590;2023-05-02T14:01:45;45.14;37.90;62.67;;
70245;Laerm;57637;49.272;8.590;2023-05-02T14:04:10;53.82;38.46;63.66;;
70245;Laerm;57637;49.272;8.590;2023-05-02T14:06:36;53.91;45.82;61.60;;
70245;Laerm;57637;49.272;8.590;2023-05-02T14:09:02;56.51;47.28;75.32;;
70245;Laerm;57637;49.272;8.590;2023-05-02T14:11:27;54.32;47.90;73.19;;
70245;Laerm;57637;49.272;8.590;2023-05-02T14:13:53;48.69;38.76;65.67;;
70245;Laerm;57637;49.272;8.590;2023-05-02T14:16:21;47.35;38.64;60.17;;
70245;Laerm;57637;49.272;8.590;2023-05-02T14:18:47;51.33;38.37;58.22;;
70245;Laerm;57637;49.272;8.590;2023-05-02T14:21:14;51.49;45.33;64.25;;
70245;Laerm;57637;49.272;8.590;2023-05-02T14:23:40;65.92;40.07;84.53;;
70245;Laerm;57637;49.272;8.590;2023-05-02T14:26:05;58.00;48.62;62.48;;
70245;Laerm;57637;49.272;8.590;2023-05-02T14:28:30;59.44;40.85;63.77;;
70245;Laerm;57637;49.272;8.590;2023-05-02T14:30:56;56.68;38.87;69.10;;